Time;durP1;ratioP1;P1;durP2;ratioP2;P2;SDS_P1;SDS_P2;PMS_P1;PMS_P2;Temp;Humidity;BMP_temperature;BMP_pressure;BME280_temperature;BME280_humidity;BME280_pressure;Samples;Min_cycle;Max_cycle;Signal;HPM_P1;HPM_P2
2021/06/25 00:02:30;;;;;;;7.37;6.67;;;18.10;99.90;;;;;;5064135;28;20904;-73
2021/06/25 00:05:15;;;;;;;8.07;7.27;;;18.10;99.90;;;;;;5063784;28;20667;-74
2021/06/25 00:08:01;;;;;;;8.33;7.37;;;18.00;99.90;;;;;;5061742;28;20504;-73
2021/06/25 00:10:47;;;;;;;9.37;8.37;;;18.10;99.90;;;;;;5071248;28;20468;-73
2021/06/25 00:13:33;;;;;;;11.10;7.90;;;18.10;99.90;;;;;;5061621;28;20452;-73
2021/06/25 00:16:20;;;;;;;9.20;7.47;;;18.10;99.90;;;;;;5062950;28;20619;-73
2021/06/25 00:19:06;;;;;;;14.53;8.80;;;18.20;99.90;;;;;;5064305;28;20520;-74
2021/06/25 00:21:51;;;;;;;8.90;8.00;;;18.20;99.90;;;;;;5062077;28;20430;-73
2021/06/25 00:24:36;;;;;;;10.40;9.30;;;18.20;99.90;;;;;;5059121;28;20565;-74
2021/06/25 00:27:22;;;;;;;12.20;11.03;;;18.20;99.90;;;;;;5063493;28;20496;-73
2021/06/25 00:30:08;;;;;;;14.50;11.60;;;18.20;99.90;;;;;;5071388;28;20441;-74
2021/06/25 00:32:55;;;;;;;21.40;11.93;;;18.30;99.90;;;;;;5060192;28;20466;-73
2021/06/25 00:35:41;;;;;;;13.03;11.63;;;18.20;99.90;;;;;;5063829;28;20484;-73
2021/06/25 00:38:27;;;;;;;15.73;12.63;;;18.20;99.90;;;;;;5062917;28;20450;-73
2021/06/25 00:41:13;;;;;;;15.03;13.53;;;18.20;99.90;;;;;;5060204;28;20446;-74
2021/06/25 00:43:59;;;;;;;17.30;14.37;;;18.20;99.90;;;;;;5057177;28;20577;-73
2021/06/25 00:46:44;;;;;;;15.77;13.23;;;18.20;99.90;;;;;;5059474;28;20443;-73
2021/06/25 00:49:33;;;;;;;18.53;14.53;;;18.20;99.90;;;;;;5060975;28;20465;-73
2021/06/25 00:52:19;;;;;;;19.13;14.30;;;18.20;99.90;;;;;;5060479;28;20437;-74
2021/06/25 00:55:06;;;;;;;21.03;13.67;;;18.20;99.90;;;;;;5059621;28;20556;-73
2021/06/25 00:57:51;;;;;;;14.33;12.70;;;18.20;99.90;;;;;;5058122;28;20461;-73
2021/06/25 01:00:38;;;;;;;16.07;14.37;;;18.20;99.90;;;;;;5059112;28;20412;-73
2021/06/25 01:03:23;;;;;;;16.83;12.60;;;18.20;99.90;;;;;;5060561;28;20919;-73
2021/06/25 01:06:10;;;;;;;13.00;11.70;;;18.10;99.90;;;;;;5062397;28;20545;-73
2021/06/25 01:08:57;;;;;;;14.57;13.17;;;18.10;99.90;;;;;;5055269;28;20970;-73
2021/06/25 01:11:43;;;;;;;20.23;13.20;;;18.20;99.90;;;;;;5071160;28;20408;-73
2021/06/25 01:14:28;;;;;;;13.80;11.90;;;18.20;99.90;;;;;;5051627;28;20422;-74
2021/06/25 01:17:32;;;;;;;14.67;13.23;;;18.20;99.90;;;;;;5063796;28;20450;-73
2021/06/25 01:20:24;;;;;;;15.87;12.10;;;18.20;99.90;;;;;;5066188;28;20449;-73
2021/06/25 01:23:11;;;;;;;13.10;11.70;;;18.20;99.90;;;;;;5055779;28;20976;-74
2021/06/25 01:25:57;;;;;;;13.93;11.17;;;18.20;99.90;;;;;;5068578;28;20478;-73
2021/06/25 01:28:43;;;;;;;12.00;10.90;;;18.20;99.90;;;;;;5051640;28;20454;-73
2021/06/25 01:31:29;;;;;;;15.03;10.47;;;18.30;99.90;;;;;;5057666;28;21173;-73
2021/06/25 01:34:14;;;;;;;14.73;10.80;;;18.20;99.90;;;;;;5061714;28;20482;-73
2021/06/25 01:37:00;;;;;;;11.60;10.23;;;18.20;99.90;;;;;;5081190;22;20489;-74
2021/06/25 01:39:50;;;;;;;10.43;9.03;;;18.20;99.90;;;;;;5063585;28;21019;-75
2021/06/25 01:42:37;;;;;;;9.83;8.60;;;18.10;99.90;;;;;;5051441;28;20414;-75
2021/06/25 01:45:25;;;;;;;12.30;9.40;;;18.20;99.90;;;;;;5060961;28;20796;-74
2021/06/25 01:48:11;;;;;;;11.30;8.80;;;18.10;99.90;;;;;;5046122;28;20812;-75
2021/06/25 01:50:57;;;;;;;9.33;8.27;;;18.10;99.90;;;;;;5044470;28;20451;-74
2021/06/25 01:53:42;;;;;;;10.80;8.03;;;18.00;99.90;;;;;;5063279;28;20885;-74
2021/06/25 01:56:29;;;;;;;13.10;9.30;;;18.00;99.90;;;;;;5061395;28;20521;-74
2021/06/25 01:59:15;;;;;;;12.67;9.27;;;17.90;99.90;;;;;;5065559;28;20543;-74
2021/06/25 02:02:01;;;;;;;9.17;7.93;;;18.00;99.90;;;;;;5047595;28;20424;-74
2021/06/25 02:04:47;;;;;;;13.80;8.90;;;18.00;99.90;;;;;;5058713;28;20985;-74
2021/06/25 02:07:33;;;;;;;12.10;8.50;;;18.00;99.90;;;;;;5050072;28;20442;-75
2021/06/25 02:10:18;;;;;;;9.60;8.23;;;18.00;99.90;;;;;;5058968;28;20420;-74
2021/06/25 02:13:05;;;;;;;10.50;9.17;;;18.10;99.90;;;;;;5061889;28;20448;-74
2021/06/25 02:15:51;;;;;;;8.77;8.00;;;18.10;99.90;;;;;;5053264;28;20439;-74
2021/06/25 02:18:37;;;;;;;9.23;8.23;;;18.10;99.90;;;;;;5062569;28;20458;-75
2021/06/25 02:21:22;;;;;;;13.90;8.83;;;18.10;99.90;;;;;;5060913;28;20450;-74
2021/06/25 02:24:09;;;;;;;16.77;8.53;;;18.10;99.90;;;;;;5056370;28;20811;-73
2021/06/25 02:26:55;;;;;;;12.90;8.87;;;18.10;99.90;;;;;;5037017;28;20475;-74
2021/06/25 02:29:42;;;;;;;12.13;9.13;;;18.10;99.90;;;;;;5059462;28;20450;-74
2021/06/25 02:32:27;;;;;;;12.60;9.30;;;18.00;99.90;;;;;;5052075;28;20434;-74
2021/06/25 02:35:14;;;;;;;13.13;9.53;;;18.00;99.90;;;;;;5044524;28;20408;-74
2021/06/25 02:38:00;;;;;;;11.33;9.40;;;18.00;99.90;;;;;;5052188;28;21043;-74
2021/06/25 02:40:46;;;;;;;11.80;7.77;;;18.00;99.90;;;;;;5046547;28;20454;-74
2021/06/25 02:43:32;;;;;;;11.70;7.67;;;18.00;99.90;;;;;;5062652;28;21013;-74
2021/06/25 02:46:19;;;;;;;9.00;7.10;;;18.00;99.90;;;;;;5048892;28;20457;-73
2021/06/25 02:49:04;;;;;;;11.63;8.00;;;18.10;99.90;;;;;;5049319;28;20425;-74
2021/06/25 02:51:50;;;;;;;7.80;7.00;;;18.10;99.90;;;;;;5057033;28;20446;-74
2021/06/25 02:54:36;;;;;;;11.30;6.50;;;18.10;99.90;;;;;;5060902;28;20473;-74
2021/06/25 02:57:21;;;;;;;6.80;6.07;;;18.10;99.90;;;;;;5070820;28;20448;-74
2021/06/25 03:00:10;;;;;;;10.23;5.70;;;18.10;99.90;;;;;;5043731;28;20939;-74
2021/06/25 03:02:57;;;;;;;6.87;5.57;;;18.00;99.90;;;;;;5044131;28;20519;-74
2021/06/25 03:05:43;;;;;;;9.40;5.70;;;18.00;99.90;;;;;;5053941;28;20448;-74
2021/06/25 03:08:28;;;;;;;6.47;5.60;;;18.00;99.90;;;;;;5064982;28;21156;-74
2021/06/25 03:11:14;;;;;;;7.13;6.13;;;18.00;99.90;;;;;;5061954;28;20429;-74
2021/06/25 03:14:00;;;;;;;9.40;5.10;;;17.90;99.90;;;;;;5056523;28;20838;-74
2021/06/25 03:16:45;;;;;;;9.57;5.60;;;17.90;99.90;;;;;;5053721;28;20458;-74
2021/06/25 03:19:32;;;;;;;7.60;5.17;;;17.90;99.90;;;;;;5058588;28;20484;-73
2021/06/25 03:22:18;;;;;;;6.57;5.90;;;17.90;99.90;;;;;;5069055;28;20456;-74
2021/06/25 03:25:06;;;;;;;7.40;6.10;;;17.90;99.90;;;;;;5057740;28;20506;-74
2021/06/25 03:27:51;;;;;;;7.33;6.60;;;17.90;99.90;;;;;;5042630;28;20454;-74
2021/06/25 03:30:38;;;;;;;7.97;7.10;;;17.70;99.90;;;;;;5057675;28;20507;-73
2021/06/25 03:33:24;;;;;;;12.53;7.47;;;17.60;99.90;;;;;;5048559;28;20449;-74
2021/06/25 03:36:11;;;;;;;10.00;7.67;;;17.60;99.90;;;;;;5064785;28;20826;-74
2021/06/25 03:38:57;;;;;;;9.60;6.50;;;17.60;99.90;;;;;;5060937;28;20561;-73
2021/06/25 03:41:42;;;;;;;12.13;7.10;;;17.60;99.90;;;;;;5060116;28;20509;-73
2021/06/25 03:44:28;;;;;;;7.67;6.87;;;17.60;99.90;;;;;;5048203;28;20824;-73
2021/06/25 03:47:13;;;;;;;7.70;6.90;;;17.60;99.90;;;;;;5060876;28;20543;-73
2021/06/25 03:49:59;;;;;;;9.40;7.03;;;17.60;99.90;;;;;;5052691;28;20896;-73
2021/06/25 03:52:46;;;;;;;8.23;6.93;;;17.60;99.90;;;;;;5064620;28;20448;-74
2021/06/25 03:55:31;;;;;;;9.60;6.57;;;17.70;99.90;;;;;;5042109;28;20524;-73
2021/06/25 03:58:17;;;;;;;8.43;7.37;;;17.70;99.90;;;;;;5060061;28;20450;-74
2021/06/25 04:01:03;;;;;;;15.40;7.30;;;17.70;99.90;;;;;;5057153;28;20479;-74
2021/06/25 04:03:49;;;;;;;10.47;7.30;;;17.70;99.90;;;;;;5058649;28;20505;-73
2021/06/25 04:06:35;;;;;;;7.90;7.10;;;17.80;99.90;;;;;;5056168;28;20795;-73
2021/06/25 04:09:22;;;;;;;9.47;8.07;;;17.70;99.90;;;;;;5063402;28;20451;-74
2021/06/25 04:12:09;;;;;;;12.30;8.37;;;17.60;99.90;;;;;;5045920;28;20462;-72
2021/06/25 04:14:54;;;;;;;10.63;9.10;;;17.50;99.90;;;;;;5043518;28;20579;-73
2021/06/25 04:17:40;;;;;;;9.63;8.63;;;17.40;99.90;;;;;;5054013;28;20475;-72
2021/06/25 04:20:26;;;;;;;14.00;9.67;;;17.40;99.90;;;;;;5060962;28;20450;-73
2021/06/25 04:23:12;;;;;;;11.70;8.17;;;17.50;99.90;;;;;;5059386;28;20449;-72
2021/06/25 04:25:59;;;;;;;14.47;10.37;;;17.60;99.90;;;;;;5048315;28;20485;-73
2021/06/25 04:28:45;;;;;;;14.00;9.90;;;17.70;99.90;;;;;;5043494;28;20450;-72
2021/06/25 04:31:30;;;;;;;11.10;9.40;;;17.80;99.90;;;;;;5064051;28;20959;-72
2021/06/25 04:34:16;;;;;;;12.87;10.43;;;17.70;99.90;;;;;;5063893;28;20964;-73
2021/06/25 04:37:02;;;;;;;12.37;11.17;;;17.80;99.90;;;;;;5050184;28;20984;-72
2021/06/25 04:39:48;;;;;;;19.07;12.87;;;17.80;99.90;;;;;;5044684;28;20536;-73
2021/06/25 04:42:35;;;;;;;19.73;12.50;;;17.90;99.90;;;;;;5058224;28;20579;-72
2021/06/25 04:45:20;;;;;;;17.30;15.33;;;17.90;99.90;;;;;;5055424;28;20434;-72
2021/06/25 04:48:08;;;;;;;21.17;15.83;;;17.90;99.90;;;;;;5052949;28;20799;-73
2021/06/25 04:50:53;;;;;;;21.13;16.30;;;18.00;99.90;;;;;;5057523;28;20434;-72
2021/06/25 04:53:39;;;;;;;21.87;18.73;;;18.00;99.90;;;;;;5051396;28;20451;-72
2021/06/25 04:56:25;;;;;;;22.17;19.20;;;18.00;99.90;;;;;;5069886;28;20848;-72
2021/06/25 04:59:12;;;;;;;22.07;19.33;;;18.00;99.90;;;;;;5057347;28;20430;-72
2021/06/25 05:01:57;;;;;;;24.57;20.27;;;18.00;99.90;;;;;;5055721;28;20787;-72
2021/06/25 05:04:43;;;;;;;26.47;20.57;;;18.10;99.90;;;;;;5057956;28;20418;-72
2021/06/25 05:07:28;;;;;;;26.60;23.70;;;18.10;99.90;;;;;;5052640;28;20988;-73
2021/06/25 05:10:14;;;;;;;29.13;24.27;;;18.20;99.90;;;;;;5060560;28;20400;-73
2021/06/25 05:12:59;;;;;;;28.50;24.03;;;18.30;99.90;;;;;;5053047;28;20416;-72
2021/06/25 05:15:47;;;;;;;26.97;22.30;;;18.40;99.90;;;;;;5046739;28;20467;-73
2021/06/25 05:18:32;;;;;;;27.70;22.53;;;18.50;99.90;;;;;;5060117;28;20532;-73
2021/06/25 05:21:18;;;;;;;22.83;20.40;;;18.40;99.90;;;;;;5061502;28;20966;-73
2021/06/25 05:24:05;;;;;;;21.43;18.67;;;18.50;99.90;;;;;;5044788;28;21071;-73
2021/06/25 05:26:50;;;;;;;23.70;19.07;;;18.40;99.90;;;;;;5050006;28;20449;-73
2021/06/25 05:29:36;;;;;;;23.63;19.20;;;18.40;99.90;;;;;;5056569;28;20476;-73
2021/06/25 05:32:23;;;;;;;20.20;17.97;;;18.50;99.90;;;;;;5048228;28;20534;-73
2021/06/25 05:35:10;;;;;;;19.40;16.57;;;18.40;99.90;;;;;;5053730;28;20457;-73
2021/06/25 05:37:56;;;;;;;21.20;18.40;;;18.50;99.90;;;;;;5045938;28;20534;-73
2021/06/25 05:40:42;;;;;;;23.93;19.87;;;18.50;99.90;;;;;;5058429;28;20425;-73
2021/06/25 05:43:28;;;;;;;24.27;20.40;;;18.50;99.90;;;;;;5051581;28;20449;-73
2021/06/25 05:46:14;;;;;;;28.03;23.60;;;18.50;99.90;;;;;;5048343;28;20816;-72
2021/06/25 05:49:00;;;;;;;29.50;24.10;;;18.50;99.90;;;;;;5044338;28;20468;-73
2021/06/25 05:51:47;;;;;;;32.30;25.30;;;18.30;99.90;;;;;;5058426;28;20908;-72
2021/06/25 05:54:32;;;;;;;30.57;27.37;;;18.00;99.90;;;;;;5050986;28;20534;-72
2021/06/25 05:57:18;;;;;;;33.40;28.23;;;17.90;99.90;;;;;;5060904;28;20457;-72
2021/06/25 06:00:06;;;;;;;37.23;32.53;;;17.80;99.90;;;;;;5051095;28;20535;-72
2021/06/25 06:02:52;;;;;;;40.73;31.17;;;17.70;99.90;;;;;;5058397;28;20581;-74
2021/06/25 06:05:39;;;;;;;38.33;33.10;;;17.60;99.90;;;;;;5051697;28;20489;-74
2021/06/25 06:08:25;;;;;;;38.27;33.87;;;17.50;99.90;;;;;;5055925;28;20391;-73
2021/06/25 06:11:10;;;;;;;41.20;34.03;;;17.50;99.90;;;;;;5046477;28;20548;-73
2021/06/25 06:13:55;;;;;;;42.57;36.67;;;17.50;99.90;;;;;;5054814;28;20477;-74
2021/06/25 06:16:41;;;;;;;38.43;33.80;;;17.50;99.90;;;;;;5050560;28;20840;-74
2021/06/25 06:19:36;;;;;;;46.13;35.20;;;17.50;99.90;;;;;;5060197;28;20429;-72
2021/06/25 06:31:37;;;;;;;45.53;37.10;;;17.50;99.90;;;;;;5047165;28;20441;-73
2021/06/25 06:34:23;;;;;;;46.53;36.80;;;17.70;99.90;;;;;;5059616;28;20462;-72
2021/06/25 06:37:08;;;;;;;46.60;37.20;;;17.70;99.90;;;;;;5043704;28;20489;-72
2021/06/25 06:39:55;;;;;;;47.47;38.37;;;17.80;99.90;;;;;;5057252;28;20429;-73
2021/06/25 06:42:41;;;;;;;48.20;39.43;;;17.80;99.90;;;;;;5058101;28;20393;-73
2021/06/25 06:45:27;;;;;;;44.40;39.43;;;17.90;99.90;;;;;;5056346;28;20519;-73
2021/06/25 06:48:13;;;;;;;42.50;36.60;;;18.00;99.90;;;;;;5035673;28;20799;-74
2021/06/25 06:50:58;;;;;;;46.87;37.37;;;18.10;99.90;;;;;;5071153;28;20911;-73
2021/06/25 06:53:45;;;;;;;44.20;36.50;;;18.10;99.90;;;;;;5042067;28;20819;-73
2021/06/25 06:56:31;;;;;;;44.80;38.80;;;18.20;99.90;;;;;;5040666;28;20479;-73
2021/06/25 06:59:17;;;;;;;42.33;38.00;;;18.30;99.90;;;;;;5051104;28;20414;-73
2021/06/25 07:02:03;;;;;;;41.20;36.10;;;18.30;99.90;;;;;;5056033;28;20485;-73
2021/06/25 07:04:49;;;;;;;50.50;37.37;;;18.30;99.90;;;;;;5043104;28;20431;-73
2021/06/25 07:07:35;;;;;;;42.57;37.40;;;18.30;99.90;;;;;;5040807;28;20411;-72
2021/06/25 07:10:21;;;;;;;46.23;40.03;;;18.20;99.90;;;;;;5060148;28;20582;-74
2021/06/25 07:13:07;;;;;;;50.87;38.47;;;18.20;99.90;;;;;;5061955;28;20393;-72
2021/06/25 07:15:54;;;;;;;42.53;36.27;;;18.30;99.90;;;;;;5059240;28;20456;-73
2021/06/25 07:18:40;;;;;;;41.83;37.20;;;18.30;99.90;;;;;;5065241;28;20725;-73
2021/06/25 07:21:25;;;;;;;48.53;35.00;;;18.20;99.90;;;;;;5049555;28;20426;-74
2021/06/25 07:24:11;;;;;;;44.33;38.10;;;18.20;99.90;;;;;;5074250;28;20531;-73
2021/06/25 07:26:57;;;;;;;40.90;35.67;;;18.20;99.90;;;;;;5074143;28;20415;-73
2021/06/25 07:29:44;;;;;;;37.87;33.73;;;18.30;99.90;;;;;;5073916;28;20507;-73
2021/06/25 07:32:30;;;;;;;46.40;36.90;;;18.30;99.90;;;;;;5051910;28;20455;-73
2021/06/25 07:35:16;;;;;;;42.83;35.27;;;18.30;99.90;;;;;;5043918;28;20467;-72
2021/06/25 07:38:02;;;;;;;43.63;36.60;;;18.30;99.90;;;;;;5097550;22;20488;-70
2021/06/25 07:40:48;;;;;;;42.80;34.63;;;18.40;99.90;;;;;;5087577;28;20503;-70
2021/06/25 07:43:33;;;;;;;38.80;33.03;;;18.50;99.90;;;;;;5087550;28;20459;-70
2021/06/25 07:46:20;;;;;;;43.00;35.00;;;18.40;99.90;;;;;;5082474;28;20440;-70
2021/06/25 07:49:06;;;;;;;42.73;35.57;;;18.50;99.90;;;;;;5085461;28;20432;-70
2021/06/25 07:51:52;;;;;;;46.37;37.33;;;18.50;99.90;;;;;;5083345;28;20449;-70
2021/06/25 07:54:38;;;;;;;39.00;34.77;;;18.50;99.90;;;;;;5089450;28;20447;-70
2021/06/25 07:57:23;;;;;;;45.27;36.70;;;18.50;99.90;;;;;;5090462;28;20830;-70
2021/06/25 08:00:12;;;;;;;43.87;36.90;;;18.70;99.90;;;;;;5082137;28;20530;-70
2021/06/25 08:02:59;;;;;;;45.00;35.07;;;18.60;99.90;;;;;;5085658;28;20427;-70
2021/06/25 08:05:44;;;;;;;38.10;34.00;;;18.60;99.90;;;;;;5082439;28;20434;-69
2021/06/25 08:08:30;;;;;;;45.87;38.00;;;18.80;99.90;;;;;;5090925;28;20415;-70
2021/06/25 08:11:16;;;;;;;47.27;39.67;;;18.80;99.90;;;;;;5077858;28;20419;-70
2021/06/25 08:14:02;;;;;;;43.10;36.77;;;18.80;99.90;;;;;;5087546;28;20448;-71
2021/06/25 08:16:47;;;;;;;45.80;39.67;;;18.80;99.90;;;;;;5082260;28;20505;-70
2021/06/25 08:19:34;;;;;;;47.30;38.67;;;18.80;99.90;;;;;;5077481;28;21001;-70
2021/06/25 08:22:20;;;;;;;47.93;39.43;;;18.80;99.90;;;;;;5093883;28;20444;-70
2021/06/25 08:25:07;;;;;;;43.37;38.70;;;18.80;99.90;;;;;;5083074;28;20902;-70
2021/06/25 08:27:52;;;;;;;48.37;42.60;;;18.80;99.90;;;;;;5095122;28;20476;-70
2021/06/25 08:30:38;;;;;;;51.63;41.80;;;18.80;99.90;;;;;;5092350;28;20517;-70
2021/06/25 08:33:24;;;;;;;51.23;39.57;;;18.90;99.90;;;;;;5087205;28;20821;-70
2021/06/25 08:36:11;;;;;;;48.37;40.97;;;18.90;99.90;;;;;;5088847;28;20447;-70
2021/06/25 08:38:57;;;;;;;47.90;39.00;;;19.00;99.90;;;;;;5092528;28;20453;-70
2021/06/25 08:41:43;;;;;;;48.50;40.60;;;19.00;99.90;;;;;;5085088;28;20395;-70
2021/06/25 08:44:31;;;;;;;55.63;42.20;;;18.90;99.90;;;;;;5089068;28;20453;-70
2021/06/25 08:47:17;;;;;;;55.50;44.90;;;18.70;99.90;;;;;;5091101;28;20451;-70
2021/06/25 08:50:04;;;;;;;55.80;46.67;;;18.50;99.90;;;;;;5090538;28;20427;-70
2021/06/25 08:52:53;;;;;;;54.50;44.50;;;18.40;99.90;;;;;;5091608;28;20434;-70
2021/06/25 08:55:44;;;;;;;60.23;43.93;;;18.30;99.90;;;;;;5091309;28;20473;-70
2021/06/25 08:58:30;;;;;;;54.47;44.03;;;18.30;99.90;;;;;;5091908;28;20446;-70
2021/06/25 09:01:18;;;;;;;65.47;46.27;;;18.30;99.90;;;;;;5091810;28;20404;-70
2021/06/25 09:04:05;;;;;;;59.03;45.60;;;18.40;99.90;;;;;;5093380;28;20449;-70
2021/06/25 09:06:55;;;;;;;55.83;43.73;;;18.40;99.90;;;;;;5091245;28;20570;-70
2021/06/25 09:09:43;;;;;;;64.43;43.53;;;18.40;99.90;;;;;;5091743;28;20399;-70
2021/06/25 09:12:29;;;;;;;58.83;43.63;;;18.60;99.90;;;;;;5091349;28;20446;-70
2021/06/25 09:15:15;;;;;;;52.97;42.70;;;18.50;99.90;;;;;;5094857;28;20475;-70
2021/06/25 09:18:03;;;;;;;53.70;42.97;;;18.60;99.90;;;;;;5091749;28;20488;-70
2021/06/25 09:20:51;;;;;;;51.47;40.20;;;18.70;99.90;;;;;;5091936;28;20494;-70
2021/06/25 09:23:39;;;;;;;47.23;38.43;;;19.00;99.90;;;;;;5091394;28;20395;-70
2021/06/25 09:26:34;;;;;;;44.83;37.17;;;19.20;99.90;;;;;;5091043;28;20493;-70
2021/06/25 09:29:22;;;;;;;48.17;39.57;;;19.60;99.90;;;;;;5091454;28;20475;-70
2021/06/25 09:32:10;;;;;;;43.30;35.53;;;19.80;99.90;;;;;;5090934;28;20456;-70
2021/06/25 09:34:57;;;;;;;43.97;36.30;;;20.00;99.90;;;;;;5091065;28;20451;-70
2021/06/25 09:37:44;;;;;;;45.10;37.87;;;20.20;99.90;;;;;;5091265;28;20435;-70
2021/06/25 09:40:37;;;;;;;42.50;37.13;;;20.00;99.90;;;;;;5093905;28;20427;-70
2021/06/25 09:43:32;;;;;;;48.33;39.43;;;20.00;99.90;;;;;;5071628;28;20468;-70
2021/06/25 09:46:25;;;;;;;44.27;37.13;;;20.00;99.90;;;;;;5077554;28;20455;-70
2021/06/25 09:49:12;;;;;;;44.73;38.63;;;19.90;99.90;;;;;;5079660;28;20501;-70
2021/06/25 09:51:59;;;;;;;48.27;38.70;;;19.60;99.90;;;;;;5085215;28;20422;-71
2021/06/25 09:54:45;;;;;;;46.50;38.87;;;19.50;99.90;;;;;;5086161;28;20449;-71
2021/06/25 09:57:31;;;;;;;44.00;37.17;;;19.50;99.90;;;;;;5083419;28;20498;-72
2021/06/25 10:01:21;;;;;;;53.90;39.23;;;19.50;99.90;;;;;;5085141;28;20415;-71
2021/06/25 10:03:23;;;;;;;47.13;39.37;;;19.60;99.90;;;;;;5085722;28;20412;-70
2021/06/25 10:06:10;;;;;;;47.10;39.00;;;19.70;99.90;;;;;;5086092;28;20439;-70
2021/06/25 10:08:57;;;;;;;49.50;40.30;;;19.60;99.90;;;;;;5090380;28;20415;-70
2021/06/25 10:11:42;;;;;;;46.50;36.17;;;19.60;99.90;;;;;;5082195;28;20543;-70
2021/06/25 10:14:29;;;;;;;52.40;36.70;;;19.70;99.90;;;;;;5086650;28;20504;-69
2021/06/25 10:17:16;;;;;;;44.33;38.00;;;19.90;99.90;;;;;;5082657;28;20477;-70
2021/06/25 10:20:06;;;;;;;44.70;36.90;;;19.90;99.90;;;;;;5089801;28;20804;-70
2021/06/25 10:22:53;;;;;;;48.90;37.43;;;19.90;99.90;;;;;;5081796;28;20497;-70
2021/06/25 10:25:39;;;;;;;44.50;36.10;;;19.90;99.90;;;;;;5083095;28;20558;-70
2021/06/25 10:28:26;;;;;;;52.60;37.57;;;19.90;99.90;;;;;;5089224;28;20444;-70
2021/06/25 10:31:13;;;;;;;45.70;35.00;;;19.90;99.90;;;;;;5089871;28;20465;-70
2021/06/25 10:34:01;;;;;;;45.07;35.93;;;19.90;99.90;;;;;;5087536;28;20449;-70
2021/06/25 10:36:49;;;;;;;42.83;36.13;;;20.00;99.90;;;;;;5080060;28;20450;-70
2021/06/25 10:39:36;;;;;;;47.30;35.40;;;20.20;99.90;;;;;;5084207;28;20439;-70
2021/06/25 10:42:21;;;;;;;42.23;35.30;;;20.30;99.90;;;;;;5089863;28;20511;-71
2021/06/25 10:45:08;;;;;;;39.13;33.30;;;20.40;99.90;;;;;;5091463;28;20425;-70
2021/06/25 10:47:56;;;;;;;45.10;34.70;;;20.50;99.90;;;;;;5085492;28;20481;-74
2021/06/25 10:50:43;;;;;;;40.93;32.27;;;20.50;99.90;;;;;;5092390;28;20490;-72
2021/06/25 10:53:28;;;;;;;40.83;33.63;;;20.40;99.90;;;;;;5093209;28;20460;-72
2021/06/25 10:56:22;;;;;;;39.60;33.50;;;20.50;99.90;;;;;;5093655;28;20983;-74
2021/06/25 10:59:25;;;;;;;44.13;34.70;;;20.50;99.90;;;;;;5089389;28;20913;-74
2021/06/25 11:02:11;;;;;;;141.57;68.97;;;20.40;99.90;;;;;;5089216;28;20431;-72
2021/06/25 11:04:56;;;;;;;43.80;35.70;;;20.40;99.90;;;;;;5090171;28;20832;-71
2021/06/25 11:07:44;;;;;;;41.73;33.57;;;20.40;99.90;;;;;;5084923;28;20466;-72
2021/06/25 11:10:32;;;;;;;45.53;35.53;;;20.60;99.90;;;;;;5088980;28;20417;-72
2021/06/25 11:13:22;;;;;;;50.90;36.97;;;20.70;99.90;;;;;;5091147;28;20956;-71
2021/06/25 11:16:21;;;;;;;46.97;38.00;;;20.80;99.90;;;;;;5081452;28;20481;-73
2021/06/25 11:19:06;;;;;;;54.30;46.50;;;20.80;99.90;;;;;;5089409;28;20483;-72
2021/06/25 11:21:52;;;;;;;56.93;47.67;;;21.00;99.90;;;;;;5082965;28;20455;-72
2021/06/25 11:24:58;;;;;;;51.13;37.67;;;21.30;99.90;;;;;;5080223;28;20454;-72
2021/06/25 11:28:27;;;;;;;48.90;37.27;;;21.80;99.90;;;;;;5087855;28;20447;-71
2021/06/25 11:31:21;;;;;;;49.10;33.27;;;22.30;99.90;;;;;;5079274;28;20483;-72
2021/06/25 11:34:06;;;;;;;40.17;31.40;;;22.80;99.90;;;;;;5089503;28;20451;-73
2021/06/25 11:36:53;;;;;;;49.00;34.17;;;23.00;99.90;;;;;;5087019;28;20480;-72
2021/06/25 11:39:39;;;;;;;43.63;34.83;;;22.90;99.90;;;;;;5091692;28;20511;-72
2021/06/25 11:42:29;;;;;;;48.83;36.37;;;23.00;99.90;;;;;;5090047;28;20530;-72
2021/06/25 11:45:23;;;;;;;208.83;112.60;;;23.20;99.90;;;;;;5090034;28;20442;-72
2021/06/25 11:48:09;;;;;;;67.43;40.83;;;23.60;99.90;;;;;;5086163;28;20475;-72
2021/06/25 11:50:57;;;;;;;32.30;26.67;;;23.40;99.90;;;;;;5087796;28;20474;-71
2021/06/25 11:53:44;;;;;;;32.40;28.00;;;22.90;99.90;;;;;;5092627;28;20604;-72
2021/06/25 11:56:30;;;;;;;29.80;26.17;;;22.80;99.90;;;;;;5091556;28;21218;-72
2021/06/25 11:59:18;;;;;;;32.53;28.13;;;22.60;99.90;;;;;;5073806;28;20414;-72
2021/06/25 12:02:04;;;;;;;31.63;25.87;;;22.80;99.90;;;;;;5085894;28;20462;-72
2021/06/25 12:04:49;;;;;;;34.57;29.67;;;23.10;99.90;;;;;;5086176;28;20455;-72
2021/06/25 12:07:36;;;;;;;33.03;29.43;;;22.90;99.90;;;;;;5083530;28;20514;-72
2021/06/25 12:10:21;;;;;;;36.47;31.47;;;22.70;99.90;;;;;;5077618;28;20990;-71
2021/06/25 12:13:07;;;;;;;33.37;29.57;;;22.30;99.90;;;;;;5088638;28;20450;-71
2021/06/25 12:15:54;;;;;;;31.80;28.27;;;22.20;99.90;;;;;;5090436;28;20788;-72
2021/06/25 12:18:44;;;;;;;37.37;28.07;;;22.00;99.90;;;;;;5084773;28;20438;-73
2021/06/25 12:21:30;;;;;;;35.33;27.73;;;21.90;99.90;;;;;;5091159;28;20450;-71
2021/06/25 12:24:16;;;;;;;31.97;28.23;;;21.80;99.90;;;;;;5085366;28;20539;-71
2021/06/25 12:27:01;;;;;;;38.57;32.47;;;21.70;99.90;;;;;;5092137;28;20439;-71
2021/06/25 12:29:47;;;;;;;32.73;27.27;;;21.60;99.90;;;;;;5088911;28;20429;-70
2021/06/25 12:32:35;;;;;;;33.50;29.50;;;21.70;99.90;;;;;;5091501;28;20459;-70
2021/06/25 12:35:28;;;;;;;38.07;32.23;;;21.90;99.90;;;;;;5090675;28;20461;-71
2021/06/25 12:38:15;;;;;;;30.77;27.50;;;22.10;99.90;;;;;;5088064;28;20980;-70
2021/06/25 12:41:02;;;;;;;31.67;28.23;;;22.30;99.90;;;;;;5085382;28;20929;-71
2021/06/25 12:43:48;;;;;;;30.10;26.97;;;22.60;99.90;;;;;;5085842;28;20418;-71
2021/06/25 12:46:34;;;;;;;33.43;28.67;;;22.80;99.90;;;;;;5089691;28;20436;-72
2021/06/25 12:49:21;;;;;;;30.47;26.43;;;22.80;99.90;;;;;;5088061;28;20401;-71
2021/06/25 12:52:24;;;;;;;28.57;25.33;;;22.80;99.90;;;;;;5087169;28;20453;-71
2021/06/25 12:55:11;;;;;;;27.20;24.27;;;22.80;99.90;;;;;;5086124;28;20966;-70
2021/06/25 12:57:57;;;;;;;31.63;27.07;;;22.90;99.90;;;;;;5089934;28;20479;-71
2021/06/25 13:00:45;;;;;;;35.20;31.27;;;23.10;99.90;;;;;;5087993;28;20463;-70
2021/06/25 13:03:31;;;;;;;30.63;25.47;;;23.30;99.90;;;;;;5079317;28;20424;-71
2021/06/25 13:06:35;;;;;;;25.00;22.47;;;23.10;99.90;;;;;;5082143;28;20460;-72
2021/06/25 13:09:22;;;;;;;25.30;22.73;;;23.20;99.90;;;;;;5087452;28;20429;-73
2021/06/25 13:12:13;;;;;;;31.90;28.50;;;23.50;99.90;;;;;;5090836;28;20449;-73
2021/06/25 13:14:59;;;;;;;26.80;23.97;;;23.80;96.00;;;;;;5083216;28;20971;-72
2021/06/25 13:17:46;;;;;;;28.40;24.20;;;23.80;96.70;;;;;;5084547;28;20469;-72
2021/06/25 13:21:09;;;;;;;26.03;22.00;;;23.70;97.60;;;;;;5088969;28;20474;-73
2021/06/25 13:24:18;;;;;;;29.10;24.77;;;24.00;99.90;;;;;;5081608;28;20446;-73
2021/06/25 13:27:07;;;;;;;31.20;25.00;;;23.70;96.50;;;;;;5084920;28;20467;-73
2021/06/25 13:29:55;;;;;;;23.73;21.30;;;23.50;96.60;;;;;;5085708;28;20430;-73
2021/06/25 13:32:51;;;;;;;24.93;21.73;;;23.40;99.00;;;;;;5086871;28;20514;-72
2021/06/25 13:35:41;;;;;;;22.63;20.27;;;23.20;95.90;;;;;;5083284;28;20451;-73
2021/06/25 13:38:28;;;;;;;19.90;17.43;;;23.20;99.90;;;;;;5106302;22;20496;-73
2021/06/25 13:41:21;;;;;;;18.80;16.83;;;23.40;99.90;;;;;;5079744;28;20795;-72
2021/06/25 13:44:07;;;;;;;17.40;13.97;;;23.80;96.90;;;;;;5071312;28;20575;-73
2021/06/25 13:46:53;;;;;;;16.83;14.63;;;24.30;95.90;;;;;;5070799;28;20399;-73
2021/06/25 13:49:40;;;;;;;19.77;17.07;;;24.80;93.00;;;;;;5066128;28;20590;-73
2021/06/25 13:52:27;;;;;;;16.23;14.30;;;24.60;86.40;;;;;;5071108;28;20534;-73
2021/06/25 13:55:17;;;;;;;22.67;19.70;;;24.40;88.30;;;;;;5070431;28;20443;-73
2021/06/25 13:58:06;;;;;;;24.60;21.57;;;24.00;91.80;;;;;;5071406;28;20512;-73
2021/06/25 14:00:56;;;;;;;25.43;21.87;;;23.70;95.70;;;;;;5071226;28;20467;-73
2021/06/25 14:03:53;;;;;;;26.00;21.83;;;23.60;95.20;;;;;;5070925;28;20432;-73
2021/06/25 14:06:49;;;;;;;24.83;22.23;;;23.50;94.10;;;;;;5070953;28;20488;-73
2021/06/25 14:09:35;;;;;;;31.93;23.33;;;23.30;95.00;;;;;;5064769;28;20518;-73
2021/06/25 14:12:21;;;;;;;22.33;19.80;;;23.10;96.30;;;;;;5052749;28;20428;-73
2021/06/25 14:15:10;;;;;;;27.13;20.70;;;23.10;99.90;;;;;;5067270;28;20795;-73
2021/06/25 14:18:00;;;;;;;27.30;22.37;;;23.50;96.50;;;;;;5056332;28;20465;-73
2021/06/25 14:20:47;;;;;;;21.90;19.60;;;23.70;96.50;;;;;;5069614;28;20537;-73
2021/06/25 14:23:33;;;;;;;24.70;21.00;;;23.70;97.40;;;;;;5067687;28;20468;-73